sensor_id;sensor_type;location;lat;lon;timestamp;P1;durP1;ratioP1;P2;durP2;ratioP2
15482;SDS011;7843;50.330;7.312;2023-04-25T00:00:46;5.03;;;3.17;;
15482;SDS011;7843;50.330;7.312;2023-04-25T00:03:12;5.65;;;3.10;;
15482;SDS011;7843;50.330;7.312;2023-04-25T00:05:39;5.43;;;3.30;;
15482;SDS011;7843;50.330;7.312;2023-04-25T00:08:06;4.80;;;2.88;;
15482;SDS011;7843;50.330;7.312;2023-04-25T00:10:33;5.78;;;2.75;;
15482;SDS011;7843;50.330;7.312;2023-04-25T00:13:00;4.05;;;2.60;;
15482;SDS011;7843;50.330;7.312;2023-04-25T00:15:29;3.58;;;2.63;;
15482;SDS011;7843;50.330;7.312;2023-04-25T00:17:56;2.75;;;2.17;;
15482;SDS011;7843;50.330;7.312;2023-04-25T00:20:23;6.03;;;3.47;;
15482;SDS011;7843;50.330;7.312;2023-04-25T00:22:50;5.10;;;3.33;;
15482;SDS011;7843;50.330;7.312;2023-04-25T00:25:19;5.40;;;3.08;;
15482;SDS011;7843;50.330;7.312;2023-04-25T00:27:46;4.55;;;2.78;;
15482;SDS011;7843;50.330;7.312;2023-04-25T00:30:12;6.28;;;3.05;;
15482;SDS011;7843;50.330;7.312;2023-04-25T00:32:40;6.28;;;3.33;;
15482;SDS011;7843;50.330;7.312;2023-04-25T00:35:06;5.22;;;3.13;;
15482;SDS011;7843;50.330;7.312;2023-04-25T00:37:33;5.68;;;3.22;;
15482;SDS011;7843;50.330;7.312;2023-04-25T00:40:00;5.75;;;3.05;;
15482;SDS011;7843;50.330;7.312;2023-04-25T00:42:27;4.93;;;3.10;;
15482;SDS011;7843;50.330;7.312;2023-04-25T00:44:54;4.13;;;3.00;;
15482;SDS011;7843;50.330;7.312;2023-04-25T00:47:21;4.68;;;2.97;;
15482;SDS011;7843;50.330;7.312;2023-04-25T00:49:49;3.55;;;2.45;;
15482;SDS011;7843;50.330;7.312;2023-04-25T00:52:16;4.20;;;2.63;;
15482;SDS011;7843;50.330;7.312;2023-04-25T00:54:43;5.05;;;2.88;;
15482;SDS011;7843;50.330;7.312;2023-04-25T00:57:09;4.70;;;2.72;;
15482;SDS011;7843;50.330;7.312;2023-04-25T00:59:37;9.38;;;2.67;;
15482;SDS011;7843;50.330;7.312;2023-04-25T01:02:04;4.70;;;2.40;;
15482;SDS011;7843;50.330;7.312;2023-04-25T01:04:31;5.40;;;2.57;;
15482;SDS011;7843;50.330;7.312;2023-04-25T01:06:57;3.42;;;2.45;;
15482;SDS011;7843;50.330;7.312;2023-04-25T01:09:24;3.30;;;2.22;;
15482;SDS011;7843;50.330;7.312;2023-04-25T01:11:52;4.30;;;2.65;;
15482;SDS011;7843;50.330;7.312;2023-04-25T01:14:18;5.15;;;2.45;;
15482;SDS011;7843;50.330;7.312;2023-04-25T01:16:45;2.65;;;2.05;;
15482;SDS011;7843;50.330;7.312;2023-04-25T01:19:12;3.83;;;2.78;;
15482;SDS011;7843;50.330;7.312;2023-04-25T01:21:43;2.30;;;1.92;;
15482;SDS011;7843;50.330;7.312;2023-04-25T01:24:10;3.72;;;2.30;;
15482;SDS011;7843;50.330;7.312;2023-04-25T01:26:37;4.47;;;2.67;;
15482;SDS011;7843;50.330;7.312;2023-04-25T01:29:06;7.53;;;2.80;;
15482;SDS011;7843;50.330;7.312;2023-04-25T01:31:33;5.10;;;2.78;;
15482;SDS011;7843;50.330;7.312;2023-04-25T01:34:01;5.10;;;2.95;;
15482;SDS011;7843;50.330;7.312;2023-04-25T01:36:27;4.63;;;2.80;;
15482;SDS011;7843;50.330;7.312;2023-04-25T01:38:54;3.23;;;2.07;;
15482;SDS011;7843;50.330;7.312;2023-04-25T01:41:21;3.60;;;2.70;;
15482;SDS011;7843;50.330;7.312;2023-04-25T01:43:49;3.85;;;2.47;;
15482;SDS011;7843;50.330;7.312;2023-04-25T01:46:16;4.07;;;2.90;;
15482;SDS011;7843;50.330;7.312;2023-04-25T01:48:43;5.05;;;2.95;;
15482;SDS011;7843;50.330;7.312;2023-04-25T01:51:10;4.30;;;2.28;;
15482;SDS011;7843;50.330;7.312;2023-04-25T01:53:37;4.50;;;2.63;;
15482;SDS011;7843;50.330;7.312;2023-04-25T01:56:05;4.28;;;2.88;;
15482;SDS011;7843;50.330;7.312;2023-04-25T01:58:32;4.38;;;2.80;;
15482;SDS011;7843;50.330;7.312;2023-04-25T02:00:58;6.28;;;3.50;;
15482;SDS011;7843;50.330;7.312;2023-04-25T02:03:25;5.25;;;3.35;;
15482;SDS011;7843;50.330;7.312;2023-04-25T02:05:52;5.70;;;3.78;;
15482;SDS011;7843;50.330;7.312;2023-04-25T02:08:18;5.28;;;3.60;;
15482;SDS011;7843;50.330;7.312;2023-04-25T02:10:45;6.00;;;3.55;;
15482;SDS011;7843;50.330;7.312;2023-04-25T02:13:12;7.13;;;3.53;;
15482;SDS011;7843;50.330;7.312;2023-04-25T02:15:39;6.85;;;3.78;;
15482;SDS011;7843;50.330;7.312;2023-04-25T02:18:06;5.88;;;3.92;;
15482;SDS011;7843;50.330;7.312;2023-04-25T02:20:33;7.13;;;3.47;;
15482;SDS011;7843;50.330;7.312;2023-04-25T02:23:00;5.45;;;3.10;;
15482;SDS011;7843;50.330;7.312;2023-04-25T02:25:27;6.20;;;3.33;;
15482;SDS011;7843;50.330;7.312;2023-04-25T02:27:53;6.93;;;3.70;;
15482;SDS011;7843;50.330;7.312;2023-04-25T02:30:20;5.13;;;3.13;;
15482;SDS011;7843;50.330;7.312;2023-04-25T02:32:47;3.65;;;2.53;;
15482;SDS011;7843;50.330;7.312;2023-04-25T02:35:14;5.28;;;3.03;;
15482;SDS011;7843;50.330;7.312;2023-04-25T02:37:40;4.40;;;2.92;;
15482;SDS011;7843;50.330;7.312;2023-04-25T02:40:08;5.45;;;3.13;;
15482;SDS011;7843;50.330;7.312;2023-04-25T02:42:35;4.80;;;3.03;;
15482;SDS011;7843;50.330;7.312;2023-04-25T02:45:02;5.35;;;3.25;;
15482;SDS011;7843;50.330;7.312;2023-04-25T02:47:29;4.45;;;2.92;;
15482;SDS011;7843;50.330;7.312;2023-04-25T02:49:56;4.95;;;3.10;;
15482;SDS011;7843;50.330;7.312;2023-04-25T02:52:23;6.35;;;3.20;;
15482;SDS011;7843;50.330;7.312;2023-04-25T02:54:49;5.40;;;3.00;;
15482;SDS011;7843;50.330;7.312;2023-04-25T02:57:16;4.57;;;3.13;;
15482;SDS011;7843;50.330;7.312;2023-04-25T02:59:43;6.10;;;3.75;;
15482;SDS011;7843;50.330;7.312;2023-04-25T03:02:10;7.20;;;3.60;;
15482;SDS011;7843;50.330;7.312;2023-04-25T03:04:36;6.38;;;3.30;;
15482;SDS011;7843;50.330;7.312;2023-04-25T03:07:03;7.07;;;3.70;;
15482;SDS011;7843;50.330;7.312;2023-04-25T03:09:30;4.60;;;3.40;;
15482;SDS011;7843;50.330;7.312;2023-04-25T03:11:57;7.80;;;3.70;;
15482;SDS011;7843;50.330;7.312;2023-04-25T03:14:23;8.60;;;3.58;;
15482;SDS011;7843;50.330;7.312;2023-04-25T03:16:50;7.50;;;3.45;;
15482;SDS011;7843;50.330;7.312;2023-04-25T03:19:17;7.97;;;3.50;;
15482;SDS011;7843;50.330;7.312;2023-04-25T03:21:44;4.90;;;3.05;;
15482;SDS011;7843;50.330;7.312;2023-04-25T03:24:11;8.82;;;2.97;;
15482;SDS011;7843;50.330;7.312;2023-04-25T03:26:37;6.50;;;2.60;;
15482;SDS011;7843;50.330;7.312;2023-04-25T03:29:04;7.65;;;2.83;;
15482;SDS011;7843;50.330;7.312;2023-04-25T03:31:31;6.03;;;2.63;;
15482;SDS011;7843;50.330;7.312;2023-04-25T03:33:58;5.13;;;2.57;;
15482;SDS011;7843;50.330;7.312;2023-04-25T03:36:24;8.55;;;2.75;;
15482;SDS011;7843;50.330;7.312;2023-04-25T03:38:51;7.25;;;2.90;;
15482;SDS011;7843;50.330;7.312;2023-04-25T03:41:18;7.95;;;2.70;;
15482;SDS011;7843;50.330;7.312;2023-04-25T03:43:44;4.85;;;2.70;;
15482;SDS011;7843;50.330;7.312;2023-04-25T03:46:11;7.32;;;2.60;;
15482;SDS011;7843;50.330;7.312;2023-04-25T03:48:38;6.78;;;3.00;;
15482;SDS011;7843;50.330;7.312;2023-04-25T03:51:04;7.50;;;2.97;;
15482;SDS011;7843;50.330;7.312;2023-04-25T03:53:31;5.53;;;2.75;;
15482;SDS011;7843;50.330;7.312;2023-04-25T03:55:57;5.60;;;2.40;;
15482;SDS011;7843;50.330;7.312;2023-04-25T03:58:24;10.18;;;2.92;;
15482;SDS011;7843;50.330;7.312;2023-04-25T04:00:51;6.97;;;2.60;;
15482;SDS011;7843;50.330;7.312;2023-04-25T04:03:17;10.23;;;3.03;;
15482;SDS011;7843;50.330;7.312;2023-04-25T04:05:44;5.18;;;2.78;;
15482;SDS011;7843;50.330;7.312;2023-04-25T04:08:11;6.10;;;2.92;;
15482;SDS011;7843;50.330;7.312;2023-04-25T04:10:38;8.52;;;2.95;;
15482;SDS011;7843;50.330;7.312;2023-04-25T04:13:04;8.40;;;3.17;;
15482;SDS011;7843;50.330;7.312;2023-04-25T04:15:31;9.95;;;3.55;;
15482;SDS011;7843;50.330;7.312;2023-04-25T04:17:59;8.20;;;3.17;;
15482;SDS011;7843;50.330;7.312;2023-04-25T04:20:29;14.30;;;3.80;;
15482;SDS011;7843;50.330;7.312;2023-04-25T04:22:56;8.25;;;2.92;;
15482;SDS011;7843;50.330;7.312;2023-04-25T04:25:23;7.43;;;3.00;;
15482;SDS011;7843;50.330;7.312;2023-04-25T04:27:50;10.98;;;3.67;;
15482;SDS011;7843;50.330;7.312;2023-04-25T04:30:21;8.27;;;2.90;;
15482;SDS011;7843;50.330;7.312;2023-04-25T04:32:50;5.70;;;2.80;;
15482;SDS011;7843;50.330;7.312;2023-04-25T04:35:17;7.40;;;2.65;;
15482;SDS011;7843;50.330;7.312;2023-04-25T04:37:44;6.95;;;3.20;;
15482;SDS011;7843;50.330;7.312;2023-04-25T04:40:11;5.35;;;2.70;;
15482;SDS011;7843;50.330;7.312;2023-04-25T04:42:41;7.43;;;2.40;;
15482;SDS011;7843;50.330;7.312;2023-04-25T04:45:09;9.05;;;2.55;;
15482;SDS011;7843;50.330;7.312;2023-04-25T04:47:36;5.68;;;2.22;;
15482;SDS011;7843;50.330;7.312;2023-04-25T04:50:03;7.85;;;2.20;;
15482;SDS011;7843;50.330;7.312;2023-04-25T04:52:30;5.30;;;2.53;;
15482;SDS011;7843;50.330;7.312;2023-04-25T04:54:57;8.38;;;2.55;;
15482;SDS011;7843;50.330;7.312;2023-04-25T04:57:23;5.20;;;2.28;;
15482;SDS011;7843;50.330;7.312;2023-04-25T04:59:50;4.63;;;1.80;;
15482;SDS011;7843;50.330;7.312;2023-04-25T05:02:17;3.10;;;1.60;;
15482;SDS011;7843;50.330;7.312;2023-04-25T05:04:44;6.78;;;2.03;;
15482;SDS011;7843;50.330;7.312;2023-04-25T05:07:11;5.53;;;1.85;;
15482;SDS011;7843;50.330;7.312;2023-04-25T05:09:37;6.10;;;2.05;;
15482;SDS011;7843;50.330;7.312;2023-04-25T05:12:04;4.40;;;1.83;;
15482;SDS011;7843;50.330;7.312;2023-04-25T05:14:31;10.23;;;1.80;;
15482;SDS011;7843;50.330;7.312;2023-04-25T05:16:58;6.15;;;2.58;;
15482;SDS011;7843;50.330;7.312;2023-04-25T05:19:24;3.40;;;1.88;;
15482;SDS011;7843;50.330;7.312;2023-04-25T05:21:51;4.18;;;1.55;;
15482;SDS011;7843;50.330;7.312;2023-04-25T05:24:18;7.15;;;2.17;;
15482;SDS011;7843;50.330;7.312;2023-04-25T05:26:44;6.25;;;2.53;;
15482;SDS011;7843;50.330;7.312;2023-04-25T05:29:11;6.80;;;1.97;;
15482;SDS011;7843;50.330;7.312;2023-04-25T05:31:38;4.38;;;2.05;;
15482;SDS011;7843;50.330;7.312;2023-04-25T05:34:04;4.10;;;1.95;;
15482;SDS011;7843;50.330;7.312;2023-04-25T05:36:31;7.60;;;1.70;;
15482;SDS011;7843;50.330;7.312;2023-04-25T05:38:58;3.75;;;1.67;;
15482;SDS011;7843;50.330;7.312;2023-04-25T05:41:25;7.30;;;1.80;;
15482;SDS011;7843;50.330;7.312;2023-04-25T05:43:52;7.50;;;2.00;;
15482;SDS011;7843;50.330;7.312;2023-04-25T05:46:20;6.43;;;2.35;;
15482;SDS011;7843;50.330;7.312;2023-04-25T05:48:46;7.43;;;2.03;;
15482;SDS011;7843;50.330;7.312;2023-04-25T05:51:13;4.75;;;1.65;;
15482;SDS011;7843;50.330;7.312;2023-04-25T05:53:40;4.93;;;1.70;;
15482;SDS011;7843;50.330;7.312;2023-04-25T05:56:08;5.13;;;1.90;;
15482;SDS011;7843;50.330;7.312;2023-04-25T05:58:34;7.13;;;2.67;;
15482;SDS011;7843;50.330;7.312;2023-04-25T06:01:01;7.40;;;2.30;;
15482;SDS011;7843;50.330;7.312;2023-04-25T06:03:28;3.75;;;1.95;;
15482;SDS011;7843;50.330;7.312;2023-04-25T06:05:56;4.47;;;1.73;;
15482;SDS011;7843;50.330;7.312;2023-04-25T06:08:22;5.35;;;1.65;;
15482;SDS011;7843;50.330;7.312;2023-04-25T06:10:49;7.03;;;2.13;;
15482;SDS011;7843;50.330;7.312;2023-04-25T06:13:16;6.45;;;2.13;;
15482;SDS011;7843;50.330;7.312;2023-04-25T06:15:43;5.38;;;1.70;;
15482;SDS011;7843;50.330;7.312;2023-04-25T06:18:10;6.00;;;1.92;;
15482;SDS011;7843;50.330;7.312;2023-04-25T06:20:36;6.43;;;1.92;;
15482;SDS011;7843;50.330;7.312;2023-04-25T06:23:03;6.90;;;2.08;;
15482;SDS011;7843;50.330;7.312;2023-04-25T06:25:30;4.97;;;2.07;;
15482;SDS011;7843;50.330;7.312;2023-04-25T06:27:56;6.80;;;2.05;;
15482;SDS011;7843;50.330;7.312;2023-04-25T06:30:23;3.78;;;2.22;;
15482;SDS011;7843;50.330;7.312;2023-04-25T06:32:52;4.30;;;1.98;;
15482;SDS011;7843;50.330;7.312;2023-04-25T06:35:19;4.60;;;1.83;;
15482;SDS011;7843;50.330;7.312;2023-04-25T06:37:46;4.60;;;2.30;;
15482;SDS011;7843;50.330;7.312;2023-04-25T06:40:13;5.80;;;2.47;;
15482;SDS011;7843;50.330;7.312;2023-04-25T06:42:43;8.18;;;2.90;;
15482;SDS011;7843;50.330;7.312;2023-04-25T06:45:09;3.45;;;1.95;;
15482;SDS011;7843;50.330;7.312;2023-04-25T06:47:36;6.93;;;2.30;;
15482;SDS011;7843;50.330;7.312;2023-04-25T06:50:03;6.05;;;2.33;;
15482;SDS011;7843;50.330;7.312;2023-04-25T06:52:30;6.05;;;2.40;;
15482;SDS011;7843;50.330;7.312;2023-04-25T06:54:57;6.93;;;2.85;;
15482;SDS011;7843;50.330;7.312;2023-04-25T06:57:24;7.57;;;3.00;;
15482;SDS011;7843;50.330;7.312;2023-04-25T06:59:51;6.88;;;2.60;;
15482;SDS011;7843;50.330;7.312;2023-04-25T07:02:18;5.28;;;2.53;;
15482;SDS011;7843;50.330;7.312;2023-04-25T07:04:45;4.72;;;1.95;;
15482;SDS011;7843;50.330;7.312;2023-04-25T07:07:12;5.50;;;2.20;;
15482;SDS011;7843;50.330;7.312;2023-04-25T07:09:39;6.50;;;2.75;;
15482;SDS011;7843;50.330;7.312;2023-04-25T07:12:05;7.78;;;1.92;;
15482;SDS011;7843;50.330;7.312;2023-04-25T07:14:32;8.73;;;2.30;;
15482;SDS011;7843;50.330;7.312;2023-04-25T07:16:59;5.90;;;1.83;;
15482;SDS011;7843;50.330;7.312;2023-04-25T07:19:25;9.37;;;2.90;;
15482;SDS011;7843;50.330;7.312;2023-04-25T07:21:52;9.80;;;2.53;;
15482;SDS011;7843;50.330;7.312;2023-04-25T07:24:19;9.70;;;2.67;;
15482;SDS011;7843;50.330;7.312;2023-04-25T07:26:46;6.60;;;2.77;;
15482;SDS011;7843;50.330;7.312;2023-04-25T07:29:13;5.40;;;2.30;;
15482;SDS011;7843;50.330;7.312;2023-04-25T07:31:39;5.90;;;1.90;;
15482;SDS011;7843;50.330;7.312;2023-04-25T07:34:06;9.85;;;2.40;;
15482;SDS011;7843;50.330;7.312;2023-04-25T07:36:33;8.15;;;2.28;;
15482;SDS011;7843;50.330;7.312;2023-04-25T07:39:00;4.05;;;1.92;;
15482;SDS011;7843;50.330;7.312;2023-04-25T07:41:26;5.88;;;2.40;;
15482;SDS011;7843;50.330;7.312;2023-04-25T07:43:53;6.00;;;2.00;;
15482;SDS011;7843;50.330;7.312;2023-04-25T07:46:19;7.63;;;2.53;;
15482;SDS011;7843;50.330;7.312;2023-04-25T07:48:46;7.18;;;2.45;;
15482;SDS011;7843;50.330;7.312;2023-04-25T07:51:13;5.72;;;2.88;;
15482;SDS011;7843;50.330;7.312;2023-04-25T07:53:39;9.13;;;2.95;;
15482;SDS011;7843;50.330;7.312;2023-04-25T07:56:07;10.80;;;3.13;;
15482;SDS011;7843;50.330;7.312;2023-04-25T07:58:34;9.98;;;3.08;;
15482;SDS011;7843;50.330;7.312;2023-04-25T08:01:00;9.55;;;2.35;;
15482;SDS011;7843;50.330;7.312;2023-04-25T08:03:27;6.63;;;2.03;;
15482;SDS011;7843;50.330;7.312;2023-04-25T08:05:54;8.70;;;2.05;;
15482;SDS011;7843;50.330;7.312;2023-04-25T08:08:21;4.55;;;2.10;;
15482;SDS011;7843;50.330;7.312;2023-04-25T08:10:48;11.38;;;2.53;;
15482;SDS011;7843;50.330;7.312;2023-04-25T08:13:14;8.40;;;2.50;;
15482;SDS011;7843;50.330;7.312;2023-04-25T08:15:41;8.32;;;2.20;;
15482;SDS011;7843;50.330;7.312;2023-04-25T08:18:08;4.53;;;2.08;;
15482;SDS011;7843;50.330;7.312;2023-04-25T08:20:34;8.95;;;1.92;;
15482;SDS011;7843;50.330;7.312;2023-04-25T08:23:01;3.40;;;1.55;;
15482;SDS011;7843;50.330;7.312;2023-04-25T08:25:28;6.10;;;1.85;;
15482;SDS011;7843;50.330;7.312;2023-04-25T08:27:55;6.10;;;1.90;;
15482;SDS011;7843;50.330;7.312;2023-04-25T08:30:22;4.65;;;1.92;;
15482;SDS011;7843;50.330;7.312;2023-04-25T08:32:48;4.43;;;1.60;;
15482;SDS011;7843;50.330;7.312;2023-04-25T08:35:15;7.50;;;1.58;;
15482;SDS011;7843;50.330;7.312;2023-04-25T08:37:43;5.95;;;1.77;;
15482;SDS011;7843;50.330;7.312;2023-04-25T08:40:11;3.85;;;1.60;;
15482;SDS011;7843;50.330;7.312;2023-04-25T08:42:40;7.70;;;2.00;;
15482;SDS011;7843;50.330;7.312;2023-04-25T08:45:08;4.88;;;1.55;;
15482;SDS011;7843;50.330;7.312;2023-04-25T08:47:36;10.73;;;2.40;;
15482;SDS011;7843;50.330;7.312;2023-04-25T08:50:04;5.13;;;2.05;;
15482;SDS011;7843;50.330;7.312;2023-04-25T08:52:35;4.63;;;1.60;;
15482;SDS011;7843;50.330;7.312;2023-04-25T08:55:04;6.18;;;1.60;;
15482;SDS011;7843;50.330;7.312;2023-04-25T08:57:33;5.57;;;1.77;;
15482;SDS011;7843;50.330;7.312;2023-04-25T09:00:00;4.95;;;1.92;;
15482;SDS011;7843;50.330;7.312;2023-04-25T09:02:27;4.45;;;1.58;;
15482;SDS011;7843;50.330;7.312;2023-04-25T09:04:55;3.88;;;1.48;;
15482;SDS011;7843;50.330;7.312;2023-04-25T09:07:23;5.22;;;1.50;;
15482;SDS011;7843;50.330;7.312;2023-04-25T09:09:51;7.97;;;1.65;;
15482;SDS011;7843;50.330;7.312;2023-04-25T09:12:19;7.00;;;1.57;;
15482;SDS011;7843;50.330;7.312;2023-04-25T09:17:36;4.75;;;1.80;;
15482;SDS011;7843;50.330;7.312;2023-04-25T09:20:09;7.35;;;1.77;;
15482;SDS011;7843;50.330;7.312;2023-04-25T09:22:38;7.22;;;1.90;;
15482;SDS011;7843;50.330;7.312;2023-04-25T09:25:09;2.85;;;1.25;;
15482;SDS011;7843;50.330;7.312;2023-04-25T09:27:48;6.93;;;1.83;;
15482;SDS011;7843;50.330;7.312;2023-04-25T09:30:18;9.50;;;1.90;;
15482;SDS011;7843;50.330;7.312;2023-04-25T09:32:45;5.40;;;1.98;;
15482;SDS011;7843;50.330;7.312;2023-04-25T09:35:11;5.20;;;1.85;;
15482;SDS011;7843;50.330;7.312;2023-04-25T09:37:50;7.43;;;1.75;;
15482;SDS011;7843;50.330;7.312;2023-04-25T09:40:17;6.18;;;1.35;;
15482;SDS011;7843;50.330;7.312;2023-04-25T09:42:44;3.63;;;1.33;;
15482;SDS011;7843;50.330;7.312;2023-04-25T09:45:12;2.47;;;1.02;;
15482;SDS011;7843;50.330;7.312;2023-04-25T09:47:43;2.92;;;0.98;;
15482;SDS011;7843;50.330;7.312;2023-04-25T09:50:16;4.78;;;1.30;;
15482;SDS011;7843;50.330;7.312;2023-04-25T09:52:45;3.20;;;1.35;;
15482;SDS011;7843;50.330;7.312;2023-04-25T09:55:11;4.30;;;1.40;;
15482;SDS011;7843;50.330;7.312;2023-04-25T09:57:38;7.07;;;1.42;;
15482;SDS011;7843;50.330;7.312;2023-04-25T10:00:06;4.20;;;1.20;;
15482;SDS011;7843;50.330;7.312;2023-04-25T10:02:37;6.32;;;1.55;;
15482;SDS011;7843;50.330;7.312;2023-04-25T10:05:07;4.82;;;1.95;;
15482;SDS011;7843;50.330;7.312;2023-04-25T10:07:34;4.57;;;1.38;;
15482;SDS011;7843;50.330;7.312;2023-04-25T10:10:04;3.65;;;1.40;;
15482;SDS011;7843;50.330;7.312;2023-04-25T10:12:35;3.30;;;1.50;;
15482;SDS011;7843;50.330;7.312;2023-04-25T10:15:02;5.05;;;1.70;;
15482;SDS011;7843;50.330;7.312;2023-04-25T10:17:30;4.65;;;1.60;;
15482;SDS011;7843;50.330;7.312;2023-04-25T10:19:58;7.63;;;1.73;;
15482;SDS011;7843;50.330;7.312;2023-04-25T10:22:37;3.45;;;1.35;;
15482;SDS011;7843;50.330;7.312;2023-04-25T10:25:07;2.90;;;1.40;;
15482;SDS011;7843;50.330;7.312;2023-04-25T10:27:35;4.22;;;1.73;;
15482;SDS011;7843;50.330;7.312;2023-04-25T10:30:24;6.53;;;1.35;;
15482;SDS011;7843;50.330;7.312;2023-04-25T10:32:50;2.42;;;1.38;;
15482;SDS011;7843;50.330;7.312;2023-04-25T10:35:18;5.13;;;1.55;;
15482;SDS011;7843;50.330;7.312;2023-04-25T10:40:36;3.10;;;1.43;;
15482;SDS011;7843;50.330;7.312;2023-04-25T10:46:00;8.90;;;1.70;;
15482;SDS011;7843;50.330;7.312;2023-04-25T10:48:31;4.85;;;1.50;;
15482;SDS011;7843;50.330;7.312;2023-04-25T10:51:11;3.00;;;1.45;;
15482;SDS011;7843;50.330;7.312;2023-04-25T10:53:43;2.92;;;1.45;;
15482;SDS011;7843;50.330;7.312;2023-04-25T10:56:22;3.60;;;1.00;;
15482;SDS011;7843;50.330;7.312;2023-04-25T10:58:52;5.00;;;1.30;;
15482;SDS011;7843;50.330;7.312;2023-04-25T11:04:04;3.88;;;1.35;;
15482;SDS011;7843;50.330;7.312;2023-04-25T11:06:34;3.25;;;0.90;;
15482;SDS011;7843;50.330;7.312;2023-04-25T11:09:12;3.65;;;1.20;;
15482;SDS011;7843;50.330;7.312;2023-04-25T11:11:39;5.25;;;1.20;;
15482;SDS011;7843;50.330;7.312;2023-04-25T11:14:08;3.00;;;1.00;;
15482;SDS011;7843;50.330;7.312;2023-04-25T11:16:35;4.10;;;1.00;;
15482;SDS011;7843;50.330;7.312;2023-04-25T11:19:02;2.00;;;0.85;;
15482;SDS011;7843;50.330;7.312;2023-04-25T11:21:30;3.90;;;1.00;;
15482;SDS011;7843;50.330;7.312;2023-04-25T11:23:57;2.35;;;1.10;;
15482;SDS011;7843;50.330;7.312;2023-04-25T11:26:25;5.07;;;1.00;;
15482;SDS011;7843;50.330;7.312;2023-04-25T11:28:56;4.18;;;1.08;;
15482;SDS011;7843;50.330;7.312;2023-04-25T11:31:24;5.03;;;1.40;;
15482;SDS011;7843;50.330;7.312;2023-04-25T11:33:53;5.22;;;1.50;;
15482;SDS011;7843;50.330;7.312;2023-04-25T11:36:22;5.30;;;1.05;;
15482;SDS011;7843;50.330;7.312;2023-04-25T11:38:50;5.10;;;1.25;;
15482;SDS011;7843;50.330;7.312;2023-04-25T11:41:18;6.05;;;1.13;;
15482;SDS011;7843;50.330;7.312;2023-04-25T11:43:45;2.92;;;1.10;;
15482;SDS011;7843;50.330;7.312;2023-04-25T11:46:13;2.65;;;0.80;;
15482;SDS011;7843;50.330;7.312;2023-04-25T11:48:41;3.78;;;0.85;;
15482;SDS011;7843;50.330;7.312;2023-04-25T11:51:08;2.88;;;0.90;;
15482;SDS011;7843;50.330;7.312;2023-04-25T11:53:35;2.20;;;0.98;;
15482;SDS011;7843;50.330;7.312;2023-04-25T11:56:02;2.85;;;0.93;;
15482;SDS011;7843;50.330;7.312;2023-04-25T12:01:31;5.38;;;1.23;;
15482;SDS011;7843;50.330;7.312;2023-04-25T12:04:10;5.47;;;1.17;;
15482;SDS011;7843;50.330;7.312;2023-04-25T12:06:42;4.30;;;1.10;;
15482;SDS011;7843;50.330;7.312;2023-04-25T12:09:10;2.08;;;0.95;;
15482;SDS011;7843;50.330;7.312;2023-04-25T12:11:42;3.85;;;1.17;;
15482;SDS011;7843;50.330;7.312;2023-04-25T12:14:23;5.55;;;1.58;;
15482;SDS011;7843;50.330;7.312;2023-04-25T12:16:55;5.85;;;1.05;;
15482;SDS011;7843;50.330;7.312;2023-04-25T12:19:23;6.32;;;1.00;;
15482;SDS011;7843;50.330;7.312;2023-04-25T12:21:51;3.30;;;1.02;;
15482;SDS011;7843;50.330;7.312;2023-04-25T12:24:23;1.85;;;0.90;;
15482;SDS011;7843;50.330;7.312;2023-04-25T12:26:59;3.55;;;1.17;;
15482;SDS011;7843;50.330;7.312;2023-04-25T12:29:31;3.92;;;1.33;;
15482;SDS011;7843;50.330;7.312;2023-04-25T12:32:07;3.38;;;1.00;;
15482;SDS011;7843;50.330;7.312;2023-04-25T12:34:34;1.90;;;0.90;;
15482;SDS011;7843;50.330;7.312;2023-04-25T12:37:01;5.03;;;1.35;;
15482;SDS011;7843;50.330;7.312;2023-04-25T12:39:28;4.05;;;1.02;;
15482;SDS011;7843;50.330;7.312;2023-04-25T12:41:55;1.98;;;0.85;;
15482;SDS011;7843;50.330;7.312;2023-04-25T12:44:21;6.30;;;1.20;;
15482;SDS011;7843;50.330;7.312;2023-04-25T12:46:48;7.85;;;0.90;;
15482;SDS011;7843;50.330;7.312;2023-04-25T12:49:16;2.85;;;1.10;;
15482;SDS011;7843;50.330;7.312;2023-04-25T12:51:43;2.70;;;0.98;;
15482;SDS011;7843;50.330;7.312;2023-04-25T12:54:10;3.13;;;1.40;;
15482;SDS011;7843;50.330;7.312;2023-04-25T12:56:37;4.60;;;1.15;;
15482;SDS011;7843;50.330;7.312;2023-04-25T12:59:03;2.28;;;1.13;;
15482;SDS011;7843;50.330;7.312;2023-04-25T13:01:30;1.88;;;0.93;;
15482;SDS011;7843;50.330;7.312;2023-04-25T13:03:59;4.72;;;1.35;;
15482;SDS011;7843;50.330;7.312;2023-04-25T13:06:25;3.42;;;1.02;;
15482;SDS011;7843;50.330;7.312;2023-04-25T13:08:53;6.30;;;1.05;;
15482;SDS011;7843;50.330;7.312;2023-04-25T13:11:20;5.43;;;1.38;;
15482;SDS011;7843;50.330;7.312;2023-04-25T13:13:47;3.60;;;1.48;;
15482;SDS011;7843;50.330;7.312;2023-04-25T13:16:13;2.00;;;0.80;;
15482;SDS011;7843;50.330;7.312;2023-04-25T13:18:40;13.93;;;1.48;;
15482;SDS011;7843;50.330;7.312;2023-04-25T13:21:09;5.93;;;1.52;;
15482;SDS011;7843;50.330;7.312;2023-04-25T13:23:37;6.78;;;2.05;;
15482;SDS011;7843;50.330;7.312;2023-04-25T13:26:04;2.63;;;1.27;;
15482;SDS011;7843;50.330;7.312;2023-04-25T13:28:30;4.07;;;1.52;;
15482;SDS011;7843;50.330;7.312;2023-04-25T13:30:57;4.93;;;1.42;;
15482;SDS011;7843;50.330;7.312;2023-04-25T13:33:24;4.43;;;1.33;;
15482;SDS011;7843;50.330;7.312;2023-04-25T13:35:50;3.17;;;1.05;;
15482;SDS011;7843;50.330;7.312;2023-04-25T13:38:23;3.72;;;1.67;;
15482;SDS011;7843;50.330;7.312;2023-04-25T13:40:51;7.55;;;2.05;;
15482;SDS011;7843;50.330;7.312;2023-04-25T13:43:19;4.72;;;1.50;;
15482;SDS011;7843;50.330;7.312;2023-04-25T13:45:48;3.85;;;1.42;;
15482;SDS011;7843;50.330;7.312;2023-04-25T13:48:16;6.90;;;2.25;;
15482;SDS011;7843;50.330;7.312;2023-04-25T13:50:43;2.75;;;1.20;;
15482;SDS011;7843;50.330;7.312;2023-04-25T13:53:11;5.55;;;1.70;;
15482;SDS011;7843;50.330;7.312;2023-04-25T13:55:38;4.32;;;1.30;;
15482;SDS011;7843;50.330;7.312;2023-04-25T13:58:05;5.67;;;1.70;;
15482;SDS011;7843;50.330;7.312;2023-04-25T14:00:36;6.80;;;1.40;;
15482;SDS011;7843;50.330;7.312;2023-04-25T14:03:05;5.27;;;1.30;;
15482;SDS011;7843;50.330;7.312;2023-04-25T14:05:33;4.57;;;1.30;;
15482;SDS011;7843;50.330;7.312;2023-04-25T14:08:04;5.38;;;1.30;;
15482;SDS011;7843;50.330;7.312;2023-04-25T14:10:32;4.68;;;1.83;;
15482;SDS011;7843;50.330;7.312;2023-04-25T14:13:00;4.00;;;1.42;;
15482;SDS011;7843;50.330;7.312;2023-04-25T14:15:29;6.22;;;1.80;;
15482;SDS011;7843;50.330;7.312;2023-04-25T14:18:00;3.03;;;1.40;;
15482;SDS011;7843;50.330;7.312;2023-04-25T14:20:27;4.55;;;1.35;;
15482;SDS011;7843;50.330;7.312;2023-04-25T14:22:54;3.90;;;1.53;;
15482;SDS011;7843;50.330;7.312;2023-04-25T14:25:22;6.32;;;1.55;;
15482;SDS011;7843;50.330;7.312;2023-04-25T14:27:49;6.95;;;1.23;;
15482;SDS011;7843;50.330;7.312;2023-04-25T14:30:19;7.07;;;1.50;;
15482;SDS011;7843;50.330;7.312;2023-04-25T14:32:50;5.28;;;1.40;;
15482;SDS011;7843;50.330;7.312;2023-04-25T14:35:16;2.85;;;1.30;;
15482;SDS011;7843;50.330;7.312;2023-04-25T14:37:50;1.92;;;1.02;;
15482;SDS011;7843;50.330;7.312;2023-04-25T14:40:18;5.80;;;1.90;;
15482;SDS011;7843;50.330;7.312;2023-04-25T14:42:48;5.40;;;1.75;;
15482;SDS011;7843;50.330;7.312;2023-04-25T14:45:17;3.77;;;1.30;;
15482;SDS011;7843;50.330;7.312;2023-04-25T14:47:44;3.87;;;1.40;;
15482;SDS011;7843;50.330;7.312;2023-04-25T14:50:11;5.30;;;1.27;;
15482;SDS011;7843;50.330;7.312;2023-04-25T14:52:37;5.60;;;1.47;;
15482;SDS011;7843;50.330;7.312;2023-04-25T14:55:04;4.32;;;1.25;;
15482;SDS011;7843;50.330;7.312;2023-04-25T14:57:34;6.72;;;1.50;;
15482;SDS011;7843;50.330;7.312;2023-04-25T15:00:01;6.32;;;1.20;;
15482;SDS011;7843;50.330;7.312;2023-04-25T15:02:31;2.20;;;1.15;;
15482;SDS011;7843;50.330;7.312;2023-04-25T15:04:57;5.15;;;1.48;;
15482;SDS011;7843;50.330;7.312;2023-04-25T15:07:24;2.83;;;1.42;;
15482;SDS011;7843;50.330;7.312;2023-04-25T15:09:51;1.77;;;1.10;;
15482;SDS011;7843;50.330;7.312;2023-04-25T15:12:19;6.68;;;1.48;;
15482;SDS011;7843;50.330;7.312;2023-04-25T15:14:46;3.67;;;1.50;;
15482;SDS011;7843;50.330;7.312;2023-04-25T15:17:13;6.35;;;1.77;;